Terminal Aerodrome Forecast
Issued by NWS

Current Version | Previous Version | Text Only | Print | Product List | Glossary On
Versions: 1 2 3 4 5 6 7 8 9 10 11 12 13 14 15 16 17 18 19 20
000
FTUS44 KBMX 311700
TAFANB
TAF
KANB 311733Z 3118/0118 30008KT P6SM OVC050
     FM312000 31012G22KT P6SM OVC040
     FM010400 33014KT P6SM SCT040
     FM011400 31016G23KT P6SM SKC=

USA.gov is the U.S. government's official web portal to all federal, state and local government web resources and services.